Pays
Station

 

Conditions  météo  pour  Guantanamo, Oriente  -  Cuba    Cuba

  
28 °C
    
 
 

METAR pour Guantanamo, Oriente :

MUGM 221556Z 13011KT 9999 SCT035 BKN120 28/23 A3011 RMK SLP197 T02830225

 

Voici le bulletin pour Guantanamo, Oriente - Cuba.
 
Le bulletin a été fait il y a 28 minutes, à 15:56 UTC .
Le vent soufflait à la vitesse de 5.7 mètres par seconde de Sud-est (130°).
 
La température était de 28 °C, avec un point de rosée à 23 °C.
La température ressentie était de 31 °C.
 
La pression atmosphérique était de 1020 hPa.
L'humidité relative était de 74.3%.
 
Il y avait 3 à 4/8ème de nébulosité à une hauteur de 1067 mètres et 5 à 7/8ème de nébulosité à une hauteur de 3658 mètres.
 
La visibilité globale était de supérieure à 10 kilomètres.
 

 
 
 

Pays :   A   B   C   D   E   F   G   H   I   J   K   L   M   N   O   P   Q   R   S   T   U   V   W   Y   Z

 

Partenaires :  Info Météo avec Met'info
Météo Marine avec MeteoMarine.net
Infos Site  |  Infos Légales  |  Crédits  |  Confidentialité
Contactez-nous  |  Ajouter aux favoris
© 2013-2019 METAR - Tous droits réservés